createdAt,value
2018-03-01T00:00:34.708Z,15.32
2018-03-01T00:03:04.565Z,12.20
2018-03-01T00:05:33.344Z,11.10
2018-03-01T00:08:03.530Z,11.73
2018-03-01T00:10:33.173Z,11.48
2018-03-01T00:13:03.096Z,10.77
2018-03-01T00:15:32.603Z,11.38
2018-03-01T00:18:01.643Z,8.98
2018-03-01T00:20:30.602Z,10.95
2018-03-01T00:22:59.458Z,10.05
2018-03-01T00:25:32.439Z,10.93
2018-03-01T00:28:03.329Z,10.00
2018-03-01T00:30:32.847Z,9.82
2018-03-01T00:33:02.006Z,9.63
2018-03-01T00:35:30.858Z,10.65
2018-03-01T00:37:59.717Z,9.00
2018-03-01T00:40:28.580Z,8.00
2018-03-01T00:42:58.359Z,8.13
2018-03-01T00:45:28.027Z,7.78
2018-03-01T00:47:57.198Z,7.75
2018-03-01T00:50:26.984Z,6.78
2018-03-01T00:52:56.456Z,7.97
2018-03-01T00:55:25.558Z,8.32
2018-03-01T00:57:54.710Z,8.80
2018-03-01T01:00:24.594Z,8.23
2018-03-01T01:02:54.208Z,7.65
2018-03-01T01:05:23.186Z,6.15
2018-03-01T01:07:52.154Z,8.50
2018-03-01T01:10:20.882Z,8.45
2018-03-01T01:12:49.611Z,11.45
2018-03-01T01:15:18.747Z,9.55
2018-03-01T01:17:47.487Z,6.53
2018-03-01T01:20:16.459Z,7.20
2018-03-01T01:22:45.433Z,7.57
2018-03-01T01:25:14.375Z,7.55
2018-03-01T01:27:43.254Z,6.47
2018-03-01T01:30:13.711Z,6.12
2018-03-01T01:32:42.749Z,8.35
2018-03-01T01:35:11.733Z,8.38
2018-03-01T01:37:40.765Z,10.73
2018-03-01T01:40:10.684Z,9.38
2018-03-01T01:42:39.585Z,5.95
2018-03-01T01:45:08.461Z,7.68
2018-03-01T01:47:38.261Z,10.10
2018-03-01T01:50:06.963Z,10.07
2018-03-01T01:52:37.123Z,8.88
2018-03-01T01:55:06.039Z,9.75
2018-03-01T01:57:34.930Z,8.10
2018-03-01T02:00:03.654Z,6.80
2018-03-01T02:02:33.535Z,12.13
2018-03-01T02:05:02.582Z,7.10
2018-03-01T02:07:31.466Z,9.23
2018-03-01T02:10:00.385Z,8.02
2018-03-01T02:12:29.253Z,8.82
2018-03-01T02:14:58.123Z,10.82
2018-03-01T02:17:27.017Z,5.32
2018-03-01T02:19:57.451Z,8.30
2018-03-01T02:22:27.516Z,10.77
2018-03-01T02:24:56.486Z,10.32
2018-03-01T02:27:25.452Z,8.52
2018-03-01T02:29:55.174Z,9.95
2018-03-01T02:32:24.062Z,7.40
2018-03-01T02:34:53.218Z,7.05
2018-03-01T02:37:22.119Z,7.30
2018-03-01T02:39:50.998Z,7.65
2018-03-01T02:42:19.892Z,9.90
2018-03-01T02:44:48.767Z,8.15
2018-03-01T02:47:17.671Z,7.28
2018-03-01T02:49:46.400Z,6.35
2018-03-01T02:52:16.170Z,9.25
2018-03-01T02:54:45.329Z,8.50
2018-03-01T02:57:14.259Z,8.73
2018-03-01T02:59:42.967Z,7.70
2018-03-01T03:02:12.009Z,10.18
2018-03-01T03:04:40.879Z,8.65
2018-03-01T03:07:09.759Z,7.43
2018-03-01T03:09:39.298Z,10.07
2018-03-01T03:12:08.978Z,8.50
2018-03-01T03:14:39.190Z,8.73
2018-03-01T03:17:09.598Z,6.12
2018-03-01T03:19:39.002Z,7.28
2018-03-01T03:22:08.017Z,9.57
2018-03-01T03:24:37.904Z,9.75
2018-03-01T03:27:06.879Z,8.40
2018-03-01T03:29:35.839Z,9.27
2018-03-01T03:32:04.730Z,9.27
2018-03-01T03:34:33.650Z,11.73
2018-03-01T03:37:02.507Z,12.27
2018-03-01T03:39:31.398Z,10.45
2018-03-01T03:42:01.186Z,11.70
2018-03-01T03:44:29.900Z,8.23
2018-03-01T03:46:59.046Z,10.00
2018-03-01T03:49:27.821Z,9.32
2018-03-01T03:51:56.847Z,11.25
2018-03-01T03:54:25.704Z,12.02
2018-03-01T03:56:54.590Z,9.63
2018-03-01T03:59:23.461Z,10.50
2018-03-01T04:01:52.345Z,10.38
2018-03-01T04:04:21.248Z,9.23
2018-03-01T04:06:50.119Z,7.30
2018-03-01T04:09:20.041Z,8.85
2018-03-01T04:11:48.912Z,10.57
2018-03-01T04:14:17.803Z,9.63
2018-03-01T04:16:48.430Z,9.27
2018-03-01T04:19:17.500Z,6.57
2018-03-01T04:21:46.495Z,10.23
2018-03-01T04:24:15.378Z,10.32
2018-03-01T04:26:44.271Z,9.45
2018-03-01T04:29:13.139Z,10.50
2018-03-01T04:31:42.019Z,11.70
2018-03-01T04:34:11.039Z,8.25
2018-03-01T04:36:39.806Z,9.13
2018-03-01T04:39:08.537Z,8.55
2018-03-01T04:41:37.532Z,5.62
2018-03-01T04:44:06.445Z,6.87
2018-03-01T04:46:35.326Z,9.13
2018-03-01T04:49:04.210Z,10.63
2018-03-01T04:51:33.079Z,9.73
2018-03-01T04:54:01.971Z,6.35
2018-03-01T04:56:30.838Z,8.18
2018-03-01T04:58:59.718Z,9.80
2018-03-01T05:01:29.500Z,8.80
2018-03-01T05:03:58.507Z,7.65
2018-03-01T05:06:28.260Z,9.18
2018-03-01T05:08:57.262Z,9.23
2018-03-01T05:11:26.144Z,9.70
2018-03-01T05:13:55.038Z,8.60
2018-03-01T05:16:23.907Z,8.88
2018-03-01T05:18:53.775Z,8.30
2018-03-01T05:21:22.675Z,9.90
2018-03-01T05:23:51.554Z,11.27
2018-03-01T05:26:20.446Z,13.70
2018-03-01T05:28:49.350Z,8.15
2018-03-01T05:31:18.267Z,10.82
2018-03-01T05:33:47.830Z,11.05
2018-03-01T05:36:16.911Z,11.75
2018-03-01T05:38:45.853Z,11.10
2018-03-01T05:41:14.744Z,12.65
2018-03-01T05:43:43.642Z,11.15
2018-03-01T05:46:13.482Z,10.45
2018-03-01T05:48:42.387Z,8.38
2018-03-01T05:51:11.262Z,8.95
2018-03-01T05:53:40.145Z,13.23
2018-03-01T05:56:09.010Z,9.85
2018-03-01T05:58:37.920Z,12.63
2018-03-01T06:01:07.775Z,12.98
2018-03-01T06:03:36.678Z,13.57
2018-03-01T06:06:05.656Z,13.73
2018-03-01T06:08:35.146Z,13.13
2018-03-01T06:11:04.121Z,14.02
2018-03-01T06:13:33.185Z,12.60
2018-03-01T06:16:02.077Z,17.55
2018-03-01T06:18:30.940Z,15.75
2018-03-01T06:20:59.850Z,14.43
2018-03-01T06:23:28.730Z,14.25
2018-03-01T06:28:46.735Z,15.48
2018-03-01T06:31:27.504Z,14.07
2018-03-01T06:33:57.335Z,13.27
2018-03-01T06:36:26.420Z,14.50
2018-03-01T06:39:00.800Z,17.23
2018-03-01T06:41:30.033Z,20.00
2018-03-01T06:44:03.144Z,19.12
2018-03-01T06:46:40.836Z,24.02
2018-03-01T06:49:10.606Z,20.48
2018-03-01T06:51:40.460Z,25.25
2018-03-01T06:54:10.174Z,21.40
2018-03-01T06:56:39.506Z,21.83
2018-03-01T06:59:08.654Z,18.48
2018-03-01T07:01:38.285Z,21.65
2018-03-01T07:07:44.870Z,25.20
2018-03-01T07:10:14.031Z,26.23
2018-03-01T07:12:44.596Z,23.10
2018-03-01T07:15:15.539Z,25.62
2018-03-01T07:17:49.028Z,20.73
2018-03-01T07:20:18.248Z,20.62
2018-03-01T07:22:47.270Z,20.15
2018-03-01T07:25:16.228Z,22.17
2018-03-01T07:27:45.545Z,24.77
2018-03-01T07:32:48.094Z,26.45
2018-03-01T07:35:17.770Z,22.30
2018-03-01T07:37:46.559Z,26.92
2018-03-01T07:40:15.529Z,29.23
2018-03-01T07:42:44.366Z,29.92
2018-03-01T07:45:13.170Z,29.98
2018-03-01T07:47:42.117Z,25.83
2018-03-01T07:50:11.015Z,27.15
2018-03-01T07:52:39.881Z,28.90
2018-03-01T07:55:08.758Z,30.58
2018-03-01T07:57:37.638Z,27.73
2018-03-01T08:00:06.534Z,29.73
2018-03-01T08:02:36.307Z,26.83
2018-03-01T08:05:05.265Z,25.55
2018-03-01T08:07:34.137Z,24.50
2018-03-01T08:10:04.694Z,24.50
2018-03-01T08:12:33.755Z,23.40
2018-03-01T08:15:03.514Z,24.58
2018-03-01T08:17:32.545Z,24.98
2018-03-01T08:20:01.538Z,23.77
2018-03-01T08:22:30.390Z,27.30
2018-03-01T08:24:59.110Z,26.60
2018-03-01T08:27:28.122Z,25.90
2018-03-01T08:29:59.970Z,26.00
2018-03-01T08:32:28.913Z,25.92
2018-03-01T08:34:57.609Z,26.35
2018-03-01T08:37:26.381Z,27.08
2018-03-01T08:39:56.384Z,27.25
2018-03-01T08:42:27.434Z,26.62
2018-03-01T08:44:57.185Z,25.33
2018-03-01T08:47:26.214Z,28.12
2018-03-01T08:49:55.080Z,28.30
2018-03-01T08:52:23.961Z,28.45
2018-03-01T08:54:52.830Z,28.05
2018-03-01T08:57:21.763Z,28.65
2018-03-01T08:59:50.589Z,30.92
2018-03-01T09:02:19.462Z,29.25
2018-03-01T09:04:48.334Z,30.80
2018-03-01T09:07:17.098Z,29.12
2018-03-01T09:09:46.068Z,29.52
2018-03-01T09:12:14.996Z,30.35
2018-03-01T09:14:43.846Z,30.27
2018-03-01T09:17:12.730Z,30.85
2018-03-01T09:19:42.502Z,29.65
2018-03-01T09:22:11.215Z,29.95
2018-03-01T09:24:40.715Z,32.60
2018-03-01T09:27:09.653Z,31.65
2018-03-01T09:29:38.591Z,31.62
2018-03-01T09:32:07.304Z,30.98
2018-03-01T09:34:36.886Z,30.37
2018-03-01T09:37:05.762Z,32.15
2018-03-01T09:39:34.650Z,33.97
2018-03-01T09:42:03.358Z,33.72
2018-03-01T09:44:32.118Z,33.38
2018-03-01T09:47:01.242Z,34.35
2018-03-01T09:49:29.974Z,33.03
2018-03-01T09:51:58.751Z,29.95
2018-03-01T09:54:28.223Z,32.50
2018-03-01T09:56:56.953Z,33.42
2018-03-01T09:59:25.681Z,34.40
2018-03-01T10:01:54.554Z,35.08
2018-03-01T10:04:23.308Z,33.95
2018-03-01T10:06:52.966Z,32.63
2018-03-01T10:09:21.987Z,32.42
2018-03-01T10:11:50.994Z,33.05
2018-03-01T10:14:19.962Z,33.83
2018-03-01T10:16:48.887Z,35.40
2018-03-01T10:19:17.616Z,33.35
2018-03-01T10:21:46.360Z,30.37
2018-03-01T10:24:15.892Z,31.75
2018-03-01T10:26:45.151Z,33.72
2018-03-01T10:29:13.992Z,32.83
2018-03-01T10:31:43.026Z,29.52
2018-03-01T10:34:12.036Z,31.45
2018-03-01T10:36:40.962Z,31.52
2018-03-01T10:39:09.844Z,31.15
2018-03-01T10:41:38.729Z,31.00
2018-03-01T10:44:07.598Z,29.83
2018-03-01T10:46:36.494Z,32.17
2018-03-01T10:49:05.182Z,28.65
2018-03-01T10:51:33.902Z,30.05
2018-03-01T10:54:03.262Z,32.75
2018-03-01T10:56:32.038Z,36.97
2018-03-01T10:59:00.914Z,35.28
2018-03-01T11:01:32.806Z,32.63
2018-03-01T11:04:01.601Z,33.35
2018-03-01T11:06:31.337Z,33.58
2018-03-01T11:09:00.839Z,34.67
2018-03-01T11:11:29.398Z,34.40
2018-03-01T11:13:58.270Z,34.80
2018-03-01T11:16:27.163Z,35.03
2018-03-01T11:18:56.051Z,36.05
2018-03-01T11:21:24.890Z,33.75
2018-03-01T11:23:54.590Z,34.70
2018-03-01T11:26:24.211Z,35.50
2018-03-01T11:28:53.287Z,35.83
2018-03-01T11:31:21.991Z,36.83
2018-03-01T11:33:51.052Z,35.75
2018-03-01T11:36:20.582Z,38.67
2018-03-01T11:38:49.815Z,39.20
2018-03-01T11:41:18.850Z,35.15
2018-03-01T11:43:47.591Z,40.28
2018-03-01T11:46:16.326Z,38.58
2018-03-01T11:48:45.338Z,40.58
2018-03-01T11:51:15.198Z,40.30
2018-03-01T11:53:44.159Z,46.17
2018-03-01T11:56:12.892Z,42.90
2018-03-01T11:58:41.877Z,39.28
2018-03-01T12:01:10.942Z,42.50
2018-03-01T12:03:39.887Z,40.78
2018-03-01T12:06:08.783Z,39.22
2018-03-01T12:08:37.670Z,41.30
2018-03-01T12:11:06.320Z,39.65
2018-03-01T12:13:35.419Z,39.72
2018-03-01T12:16:04.337Z,38.25
2018-03-01T12:18:33.214Z,36.75
2018-03-01T12:21:02.094Z,38.72
2018-03-01T12:23:30.971Z,37.30
2018-03-01T12:26:00.824Z,34.55
2018-03-01T12:28:29.575Z,34.08
2018-03-01T12:30:58.279Z,31.95
2018-03-01T12:33:27.274Z,34.95
2018-03-01T12:35:56.214Z,31.10
2018-03-01T12:38:25.141Z,31.90
2018-03-01T12:40:54.116Z,31.75
2018-03-01T12:43:23.883Z,29.92
2018-03-01T12:45:52.958Z,29.83
2018-03-01T12:48:21.851Z,32.28
2018-03-01T12:50:50.374Z,27.10
2018-03-01T12:53:19.152Z,30.12
2018-03-01T12:55:47.866Z,32.25
2018-03-01T12:58:16.619Z,30.05
2018-03-01T13:00:45.272Z,30.05
2018-03-01T13:03:14.850Z,28.80
2018-03-01T13:05:44.313Z,29.42
2018-03-01T13:08:12.950Z,26.73
2018-03-01T13:10:42.542Z,28.35
2018-03-01T13:13:11.840Z,28.80
2018-03-01T13:15:40.386Z,24.17
2018-03-01T13:18:09.213Z,24.70
2018-03-01T13:20:37.741Z,28.23
2018-03-01T13:23:06.435Z,26.40
2018-03-01T13:25:35.037Z,27.33
2018-03-01T13:28:03.606Z,27.52
2018-03-01T13:30:42.018Z,28.90
2018-03-01T13:33:16.724Z,30.88
2018-03-01T13:35:47.449Z,31.45
2018-03-01T13:38:15.912Z,29.00
2018-03-01T13:40:44.434Z,29.67
2018-03-01T13:43:15.472Z,27.48
2018-03-01T13:45:44.568Z,29.02
2018-03-01T13:48:13.105Z,31.12
2018-03-01T13:50:41.582Z,26.12
2018-03-01T13:53:10.066Z,25.98
2018-03-01T13:55:38.562Z,28.15
2018-03-01T13:58:07.050Z,26.12
2018-03-01T14:00:35.578Z,28.85
2018-03-01T14:03:04.130Z,25.77
2018-03-01T14:05:33.446Z,28.77
2018-03-01T14:08:02.676Z,28.95
2018-03-01T14:10:31.155Z,28.70
2018-03-01T14:13:05.705Z,31.27
2018-03-01T14:15:34.194Z,26.02
2018-03-01T14:18:08.928Z,29.08
2018-03-01T14:20:43.004Z,26.00
2018-03-01T14:23:18.181Z,26.77
2018-03-01T14:25:58.915Z,24.23
2018-03-01T14:28:46.125Z,25.17
2018-03-01T14:31:14.657Z,27.75
2018-03-01T14:33:43.326Z,27.33
2018-03-01T14:36:12.015Z,24.85
2018-03-01T14:38:40.695Z,23.75
2018-03-01T14:41:09.386Z,23.98
2018-03-01T14:43:38.330Z,22.83
2018-03-01T14:46:07.065Z,23.85
2018-03-01T14:48:35.790Z,24.60
2018-03-01T14:51:05.296Z,25.55
2018-03-01T14:53:34.758Z,24.30
2018-03-01T14:56:03.450Z,22.62
2018-03-01T14:58:32.156Z,22.27
2018-03-01T15:01:00.841Z,23.30
2018-03-01T15:03:29.518Z,22.80
2018-03-01T15:05:58.206Z,22.25
2018-03-01T15:08:26.902Z,23.95
2018-03-01T15:10:55.579Z,23.23
2018-03-01T15:13:24.280Z,23.08
2018-03-01T15:15:53.742Z,24.85
2018-03-01T15:18:23.170Z,24.67
2018-03-01T15:20:51.822Z,25.45
2018-03-01T15:23:20.486Z,23.95
2018-03-01T15:25:49.174Z,27.98
2018-03-01T15:28:17.874Z,24.45
2018-03-01T15:30:47.316Z,24.83
2018-03-01T15:33:16.547Z,25.15
2018-03-01T15:35:45.813Z,24.23
2018-03-01T15:38:16.514Z,23.87
2018-03-01T15:40:50.499Z,24.08
2018-03-01T15:43:20.741Z,25.62
2018-03-01T15:45:49.757Z,26.42
2018-03-01T15:48:18.554Z,28.17
2018-03-01T15:50:47.308Z,28.38
2018-03-01T15:53:16.356Z,26.60
2018-03-01T15:55:45.323Z,26.17
2018-03-01T15:58:14.299Z,27.77
2018-03-01T16:00:43.789Z,28.87
2018-03-01T16:03:12.914Z,27.05
2018-03-01T16:05:41.981Z,25.65
2018-03-01T16:08:11.686Z,27.77
2018-03-01T16:10:40.420Z,27.87
2018-03-01T16:13:12.546Z,27.75
2018-03-01T16:15:42.210Z,25.73
2018-03-01T16:18:11.246Z,29.35
2018-03-01T16:20:41.143Z,26.20
2018-03-01T16:23:10.940Z,27.58
2018-03-01T16:25:40.063Z,27.20
2018-03-01T16:28:09.846Z,27.20
2018-03-01T16:30:38.004Z,27.45
2018-03-01T16:33:06.885Z,27.02
2018-03-01T16:35:35.766Z,28.25
2018-03-01T16:38:08.095Z,25.90
2018-03-01T16:40:38.495Z,25.05
2018-03-01T16:43:07.726Z,25.60
2018-03-01T16:45:37.513Z,29.25
2018-03-01T16:48:06.978Z,25.85
2018-03-01T16:50:36.095Z,29.70
2018-03-01T16:53:05.036Z,29.37
2018-03-01T16:55:35.926Z,26.90
2018-03-01T16:58:04.824Z,26.62
2018-03-01T17:00:33.710Z,26.17
2018-03-01T17:03:02.601Z,27.23
2018-03-01T17:05:31.454Z,27.10
2018-03-01T17:08:01.187Z,26.08
2018-03-01T17:10:30.227Z,25.12
2018-03-01T17:12:59.160Z,27.80
2018-03-01T17:15:28.007Z,23.67
2018-03-01T17:17:57.632Z,26.02
2018-03-01T17:20:26.623Z,27.75
2018-03-01T17:22:56.427Z,27.25
2018-03-01T17:25:25.464Z,26.75
2018-03-01T17:27:54.437Z,25.02
2018-03-01T17:30:23.290Z,27.40
2018-03-01T17:32:52.187Z,24.25
2018-03-01T17:35:21.059Z,24.02
2018-03-01T17:37:49.938Z,26.98
2018-03-01T17:40:18.851Z,27.90
2018-03-01T17:42:47.717Z,27.45
2018-03-01T17:45:16.784Z,26.23
2018-03-01T17:47:46.188Z,26.90
2018-03-01T17:50:16.119Z,28.83
2018-03-01T17:52:45.101Z,26.77
2018-03-01T17:55:15.148Z,28.90
2018-03-01T17:57:44.013Z,31.00
2018-03-01T18:00:12.775Z,28.58
2018-03-01T18:02:42.412Z,29.25
2018-03-01T18:05:18.735Z,28.95
2018-03-01T18:07:47.598Z,29.80
2018-03-01T18:10:16.474Z,29.45
2018-03-01T18:12:45.360Z,28.40
2018-03-01T18:15:14.238Z,27.48
2018-03-01T18:17:43.106Z,27.52
2018-03-01T18:20:12.942Z,28.90
2018-03-01T18:22:42.717Z,29.15
2018-03-01T18:25:12.773Z,29.05
2018-03-01T18:27:42.355Z,26.42
2018-03-01T18:30:11.273Z,26.52
2018-03-01T18:32:40.418Z,27.10
2018-03-01T18:35:09.987Z,26.98
2018-03-01T18:37:39.817Z,27.48
2018-03-01T18:40:08.803Z,26.08
2018-03-01T18:42:37.898Z,26.45
2018-03-01T18:45:06.794Z,28.77
2018-03-01T18:47:36.674Z,27.27
2018-03-01T18:50:07.223Z,26.70
2018-03-01T18:52:37.144Z,27.13
2018-03-01T18:55:07.118Z,28.50
2018-03-01T18:57:36.813Z,29.08
2018-03-01T19:00:04.937Z,31.10
2018-03-01T19:02:34.595Z,29.30
2018-03-01T19:05:03.727Z,28.60
2018-03-01T19:07:32.670Z,30.65
2018-03-01T19:10:01.517Z,31.50
2018-03-01T19:12:31.343Z,28.42
2018-03-01T19:15:00.142Z,24.95
2018-03-01T19:17:29.885Z,26.95
2018-03-01T19:19:58.974Z,29.92
2018-03-01T19:22:29.076Z,29.85
2018-03-01T19:24:58.542Z,28.80
2018-03-01T19:27:30.865Z,29.05
2018-03-01T19:30:01.595Z,30.05
2018-03-01T19:32:31.288Z,28.73
2018-03-01T19:35:00.400Z,27.50
2018-03-01T19:37:29.971Z,32.38
2018-03-01T19:40:00.851Z,30.20
2018-03-01T19:42:30.738Z,30.23
2018-03-01T19:44:59.732Z,29.63
2018-03-01T19:47:29.654Z,31.75
2018-03-01T19:49:58.636Z,31.52
2018-03-01T19:52:27.470Z,29.92
2018-03-01T19:54:56.330Z,31.98
2018-03-01T19:57:25.193Z,31.90
2018-03-01T19:59:54.152Z,31.10
2018-03-01T20:02:22.939Z,32.25
2018-03-01T20:04:51.822Z,30.35
2018-03-01T20:07:21.671Z,32.50
2018-03-01T20:09:50.718Z,29.83
2018-03-01T20:12:20.129Z,33.72
2018-03-01T20:14:50.714Z,31.80
2018-03-01T20:17:19.890Z,32.03
2018-03-01T20:19:49.032Z,30.15
2018-03-01T20:22:17.916Z,31.80
2018-03-01T20:24:46.936Z,32.15
2018-03-01T20:27:16.378Z,29.77
2018-03-01T20:29:45.386Z,35.05
2018-03-01T20:32:15.152Z,32.05
2018-03-01T20:34:44.911Z,33.20
2018-03-01T20:37:14.400Z,33.17
2018-03-01T20:39:43.776Z,31.30
2018-03-01T20:42:13.735Z,31.67
2018-03-01T20:44:42.781Z,33.35
2018-03-01T20:47:11.716Z,34.17
2018-03-01T20:49:41.220Z,32.78
2018-03-01T20:52:10.263Z,30.50
2018-03-01T20:54:39.218Z,33.80
2018-03-01T20:57:09.135Z,34.13
2018-03-01T20:59:37.962Z,31.48
2018-03-01T21:02:07.103Z,29.85
2018-03-01T21:04:36.423Z,31.73
2018-03-01T21:07:06.614Z,32.22
2018-03-01T21:09:36.690Z,32.65
2018-03-01T21:12:06.026Z,34.10
2018-03-01T21:14:35.101Z,31.80
2018-03-01T21:17:04.077Z,33.55
2018-03-01T21:19:33.911Z,32.78
2018-03-01T21:22:12.531Z,38.13
2018-03-01T21:24:41.650Z,35.30
2018-03-01T21:27:10.555Z,35.28
2018-03-01T21:29:39.402Z,32.45
2018-03-01T21:32:08.228Z,36.00
2018-03-01T21:34:36.977Z,37.85
2018-03-01T21:37:06.747Z,37.72
2018-03-01T21:39:35.848Z,35.53
2018-03-01T21:42:04.750Z,37.05
2018-03-01T21:44:33.553Z,37.33
2018-03-01T21:47:07.351Z,33.25
2018-03-01T21:49:37.098Z,36.58
2018-03-01T21:52:05.273Z,32.20
2018-03-01T21:54:33.966Z,36.22
2018-03-01T21:57:03.558Z,34.70
2018-03-01T21:59:32.623Z,37.80
2018-03-01T22:02:01.703Z,36.60
2018-03-01T22:04:30.593Z,37.60
2018-03-01T22:06:59.514Z,36.05
2018-03-01T22:09:30.097Z,35.22
2018-03-01T22:11:59.251Z,36.83
2018-03-01T22:14:29.070Z,35.67
2018-03-01T22:16:58.021Z,38.70
2018-03-01T22:19:26.876Z,34.58
2018-03-01T22:21:55.738Z,36.65
2018-03-01T22:24:25.371Z,34.45
2018-03-01T22:26:55.264Z,36.47
2018-03-01T22:29:25.143Z,36.75
2018-03-01T22:31:54.208Z,36.60
2018-03-01T22:34:23.200Z,37.60
2018-03-01T22:36:52.047Z,35.53
2018-03-01T22:39:22.000Z,35.55
2018-03-01T22:41:50.821Z,37.22
2018-03-01T22:44:19.714Z,37.92
2018-03-01T22:46:48.580Z,39.08
2018-03-01T22:49:17.181Z,38.28
2018-03-01T22:51:46.239Z,38.13
2018-03-01T22:54:15.234Z,35.50
2018-03-01T22:56:44.244Z,37.17
2018-03-01T22:59:13.705Z,39.35
2018-03-01T23:01:44.300Z,35.78
2018-03-01T23:04:13.477Z,40.92
2018-03-01T23:06:43.144Z,36.10
2018-03-01T23:09:13.261Z,37.40
2018-03-01T23:11:42.300Z,37.80
2018-03-01T23:14:11.318Z,38.33
2018-03-01T23:16:40.208Z,38.60
2018-03-01T23:19:09.082Z,38.63
2018-03-01T23:21:37.936Z,37.50
2018-03-01T23:24:07.688Z,38.78
2018-03-01T23:26:36.700Z,38.28
2018-03-01T23:29:05.607Z,39.65
2018-03-01T23:31:34.520Z,41.58
2018-03-01T23:34:03.356Z,37.78
2018-03-01T23:36:32.232Z,38.58
2018-03-01T23:39:01.162Z,37.95
2018-03-01T23:41:31.175Z,33.92
2018-03-01T23:44:01.602Z,40.22
2018-03-01T23:46:30.613Z,39.63
2018-03-01T23:48:59.738Z,37.58
2018-03-01T23:51:30.234Z,39.35
2018-03-01T23:53:59.668Z,37.63
2018-03-01T23:56:30.060Z,40.88
2018-03-01T23:58:59.874Z,39.30
